sensor_id;sensor_type;location;lat;lon;timestamp;P1;durP1;ratioP1;P2;durP2;ratioP2
67981;SDS011;64109;52.148;4.466;2022-12-01T00:01:48;13.88;;;7.28;;
67981;SDS011;64109;52.148;4.466;2022-12-01T00:04:14;11.98;;;6.63;;
67981;SDS011;64109;52.148;4.466;2022-12-01T00:06:40;15.93;;;6.75;;
67981;SDS011;64109;52.148;4.466;2022-12-01T00:09:07;13.45;;;7.10;;
67981;SDS011;64109;52.148;4.466;2022-12-01T00:11:52;12.55;;;6.78;;
67981;SDS011;64109;52.148;4.466;2022-12-01T00:14:18;13.00;;;6.85;;
67981;SDS011;64109;52.148;4.466;2022-12-01T00:16:44;13.10;;;7.38;;
67981;SDS011;64109;52.148;4.466;2022-12-01T00:19:10;13.20;;;7.10;;
67981;SDS011;64109;52.148;4.466;2022-12-01T00:21:36;15.00;;;7.22;;
67981;SDS011;64109;52.148;4.466;2022-12-01T00:24:02;12.18;;;6.75;;
67981;SDS011;64109;52.148;4.466;2022-12-01T00:26:28;12.75;;;6.55;;
67981;SDS011;64109;52.148;4.466;2022-12-01T00:28:55;14.90;;;8.25;;
67981;SDS011;64109;52.148;4.466;2022-12-01T00:31:22;14.43;;;7.85;;
67981;SDS011;64109;52.148;4.466;2022-12-01T00:33:48;14.48;;;7.63;;
67981;SDS011;64109;52.148;4.466;2022-12-01T00:36:14;14.77;;;8.02;;
67981;SDS011;64109;52.148;4.466;2022-12-01T00:38:40;14.93;;;6.93;;
67981;SDS011;64109;52.148;4.466;2022-12-01T00:41:06;12.93;;;6.43;;
67981;SDS011;64109;52.148;4.466;2022-12-01T00:43:32;13.77;;;7.30;;
67981;SDS011;64109;52.148;4.466;2022-12-01T00:45:58;14.02;;;7.95;;
67981;SDS011;64109;52.148;4.466;2022-12-01T00:48:24;13.48;;;7.07;;
67981;SDS011;64109;52.148;4.466;2022-12-01T00:50:51;13.40;;;7.55;;
67981;SDS011;64109;52.148;4.466;2022-12-01T00:53:17;13.32;;;7.07;;
67981;SDS011;64109;52.148;4.466;2022-12-01T00:55:43;14.98;;;8.18;;
67981;SDS011;64109;52.148;4.466;2022-12-01T00:58:10;15.25;;;7.38;;
67981;SDS011;64109;52.148;4.466;2022-12-01T01:00:36;14.48;;;7.53;;
67981;SDS011;64109;52.148;4.466;2022-12-01T01:03:03;15.05;;;7.65;;
67981;SDS011;64109;52.148;4.466;2022-12-01T01:05:29;15.55;;;7.65;;
67981;SDS011;64109;52.148;4.466;2022-12-01T01:07:55;12.75;;;6.90;;
67981;SDS011;64109;52.148;4.466;2022-12-01T01:10:21;17.27;;;8.70;;
67981;SDS011;64109;52.148;4.466;2022-12-01T01:12:47;14.93;;;7.70;;
67981;SDS011;64109;52.148;4.466;2022-12-01T01:15:13;13.55;;;7.57;;
67981;SDS011;64109;52.148;4.466;2022-12-01T01:17:39;16.55;;;8.60;;
67981;SDS011;64109;52.148;4.466;2022-12-01T01:20:05;14.13;;;7.45;;
67981;SDS011;64109;52.148;4.466;2022-12-01T01:22:31;14.68;;;8.02;;
67981;SDS011;64109;52.148;4.466;2022-12-01T01:24:59;15.80;;;8.20;;
67981;SDS011;64109;52.148;4.466;2022-12-01T01:27:25;14.48;;;7.85;;
67981;SDS011;64109;52.148;4.466;2022-12-01T01:29:51;13.25;;;7.63;;
67981;SDS011;64109;52.148;4.466;2022-12-01T01:32:17;14.95;;;7.38;;
67981;SDS011;64109;52.148;4.466;2022-12-01T01:34:42;16.65;;;7.60;;
67981;SDS011;64109;52.148;4.466;2022-12-01T01:37:09;14.73;;;8.32;;
67981;SDS011;64109;52.148;4.466;2022-12-01T01:39:35;16.23;;;7.93;;
67981;SDS011;64109;52.148;4.466;2022-12-01T01:42:01;15.40;;;7.97;;
67981;SDS011;64109;52.148;4.466;2022-12-01T01:47:13;15.63;;;7.90;;
67981;SDS011;64109;52.148;4.466;2022-12-01T01:49:39;13.13;;;7.22;;
67981;SDS011;64109;52.148;4.466;2022-12-01T01:52:05;15.05;;;7.72;;
67981;SDS011;64109;52.148;4.466;2022-12-01T01:54:35;14.13;;;7.15;;
67981;SDS011;64109;52.148;4.466;2022-12-01T01:57:02;17.27;;;7.90;;
67981;SDS011;64109;52.148;4.466;2022-12-01T01:59:52;14.13;;;8.10;;
67981;SDS011;64109;52.148;4.466;2022-12-01T02:02:16;17.33;;;8.32;;
67981;SDS011;64109;52.148;4.466;2022-12-01T02:04:49;17.38;;;8.68;;
67981;SDS011;64109;52.148;4.466;2022-12-01T02:07:17;14.82;;;7.80;;
67981;SDS011;64109;52.148;4.466;2022-12-01T02:09:43;16.88;;;9.07;;
67981;SDS011;64109;52.148;4.466;2022-12-01T02:17:42;16.02;;;7.88;;
67981;SDS011;64109;52.148;4.466;2022-12-01T02:30:39;14.25;;;7.55;;
67981;SDS011;64109;52.148;4.466;2022-12-01T02:36:18;16.92;;;8.00;;
67981;SDS011;64109;52.148;4.466;2022-12-01T02:39:50;16.20;;;7.88;;
67981;SDS011;64109;52.148;4.466;2022-12-01T02:42:15;15.40;;;7.97;;
67981;SDS011;64109;52.148;4.466;2022-12-01T02:44:38;15.10;;;7.65;;
67981;SDS011;64109;52.148;4.466;2022-12-01T02:47:11;15.35;;;7.55;;
67981;SDS011;64109;52.148;4.466;2022-12-01T02:49:43;16.70;;;8.43;;
67981;SDS011;64109;52.148;4.466;2022-12-01T02:52:11;17.00;;;8.90;;
67981;SDS011;64109;52.148;4.466;2022-12-01T02:54:38;17.55;;;8.68;;
67981;SDS011;64109;52.148;4.466;2022-12-01T02:57:04;16.33;;;8.25;;
67981;SDS011;64109;52.148;4.466;2022-12-01T02:59:30;17.67;;;8.82;;
67981;SDS011;64109;52.148;4.466;2022-12-01T03:01:59;17.88;;;8.15;;
67981;SDS011;64109;52.148;4.466;2022-12-01T03:07:00;17.95;;;8.50;;
67981;SDS011;64109;52.148;4.466;2022-12-01T03:14:40;16.30;;;8.35;;
67981;SDS011;64109;52.148;4.466;2022-12-01T03:17:16;16.80;;;7.90;;
67981;SDS011;64109;52.148;4.466;2022-12-01T03:19:44;16.85;;;8.38;;
67981;SDS011;64109;52.148;4.466;2022-12-01T03:22:14;16.48;;;8.85;;
67981;SDS011;64109;52.148;4.466;2022-12-01T03:24:43;18.38;;;9.40;;
67981;SDS011;64109;52.148;4.466;2022-12-01T03:27:09;16.40;;;8.90;;
67981;SDS011;64109;52.148;4.466;2022-12-01T03:29:37;16.70;;;8.20;;
67981;SDS011;64109;52.148;4.466;2022-12-01T03:34:50;16.08;;;8.77;;
67981;SDS011;64109;52.148;4.466;2022-12-01T03:37:21;17.35;;;8.25;;
67981;SDS011;64109;52.148;4.466;2022-12-01T03:39:49;15.15;;;7.95;;
67981;SDS011;64109;52.148;4.466;2022-12-01T03:42:23;16.48;;;8.48;;
67981;SDS011;64109;52.148;4.466;2022-12-01T03:44:51;16.88;;;8.80;;
67981;SDS011;64109;52.148;4.466;2022-12-01T03:47:24;15.68;;;7.72;;
67981;SDS011;64109;52.148;4.466;2022-12-01T03:49:53;17.85;;;7.55;;
67981;SDS011;64109;52.148;4.466;2022-12-01T03:57:35;16.30;;;8.00;;
67981;SDS011;64109;52.148;4.466;2022-12-01T04:00:03;14.50;;;7.57;;
67981;SDS011;64109;52.148;4.466;2022-12-01T04:02:30;16.45;;;8.45;;
67981;SDS011;64109;52.148;4.466;2022-12-01T04:04:56;15.70;;;8.38;;
67981;SDS011;64109;52.148;4.466;2022-12-01T04:07:22;14.65;;;7.95;;
67981;SDS011;64109;52.148;4.466;2022-12-01T04:09:48;16.38;;;8.23;;
67981;SDS011;64109;52.148;4.466;2022-12-01T04:12:14;15.25;;;8.52;;
67981;SDS011;64109;52.148;4.466;2022-12-01T04:15:00;14.90;;;7.93;;
67981;SDS011;64109;52.148;4.466;2022-12-01T04:17:26;16.77;;;8.70;;
67981;SDS011;64109;52.148;4.466;2022-12-01T04:19:52;15.95;;;8.05;;
67981;SDS011;64109;52.148;4.466;2022-12-01T04:22:18;16.00;;;8.27;;
67981;SDS011;64109;52.148;4.466;2022-12-01T04:24:44;15.07;;;7.78;;
67981;SDS011;64109;52.148;4.466;2022-12-01T04:27:10;16.17;;;7.47;;
67981;SDS011;64109;52.148;4.466;2022-12-01T04:29:36;16.23;;;7.78;;
67981;SDS011;64109;52.148;4.466;2022-12-01T04:32:02;14.77;;;7.95;;
67981;SDS011;64109;52.148;4.466;2022-12-01T04:34:28;16.05;;;8.15;;
67981;SDS011;64109;52.148;4.466;2022-12-01T04:36:54;16.35;;;8.23;;
67981;SDS011;64109;52.148;4.466;2022-12-01T04:39:20;14.98;;;8.10;;
67981;SDS011;64109;52.148;4.466;2022-12-01T04:41:47;15.93;;;8.05;;
67981;SDS011;64109;52.148;4.466;2022-12-01T04:44:13;17.13;;;8.60;;
67981;SDS011;64109;52.148;4.466;2022-12-01T04:46:39;15.48;;;8.15;;
67981;SDS011;64109;52.148;4.466;2022-12-01T04:49:05;15.75;;;8.27;;
67981;SDS011;64109;52.148;4.466;2022-12-01T04:51:31;15.27;;;7.90;;
67981;SDS011;64109;52.148;4.466;2022-12-01T04:53:57;15.85;;;7.78;;
67981;SDS011;64109;52.148;4.466;2022-12-01T04:56:23;16.30;;;8.65;;
67981;SDS011;64109;52.148;4.466;2022-12-01T04:58:49;15.88;;;7.70;;
67981;SDS011;64109;52.148;4.466;2022-12-01T05:01:16;17.10;;;8.10;;
67981;SDS011;64109;52.148;4.466;2022-12-01T05:03:43;17.25;;;7.68;;
67981;SDS011;64109;52.148;4.466;2022-12-01T05:06:14;18.02;;;8.40;;
67981;SDS011;64109;52.148;4.466;2022-12-01T05:08:40;16.08;;;7.80;;
67981;SDS011;64109;52.148;4.466;2022-12-01T05:11:11;18.15;;;8.20;;
67981;SDS011;64109;52.148;4.466;2022-12-01T05:13:38;17.00;;;9.30;;
67981;SDS011;64109;52.148;4.466;2022-12-01T05:16:11;15.30;;;8.10;;
67981;SDS011;64109;52.148;4.466;2022-12-01T05:18:38;13.88;;;7.68;;
67981;SDS011;64109;52.148;4.466;2022-12-01T05:21:05;15.27;;;7.60;;
67981;SDS011;64109;52.148;4.466;2022-12-01T05:23:32;16.15;;;8.82;;
67981;SDS011;64109;52.148;4.466;2022-12-01T05:25:58;13.63;;;7.20;;
67981;SDS011;64109;52.148;4.466;2022-12-01T05:28:24;16.20;;;8.05;;
67981;SDS011;64109;52.148;4.466;2022-12-01T05:30:51;16.65;;;7.90;;
67981;SDS011;64109;52.148;4.466;2022-12-01T05:33:17;14.45;;;7.10;;
67981;SDS011;64109;52.148;4.466;2022-12-01T05:35:43;14.27;;;7.65;;
67981;SDS011;64109;52.148;4.466;2022-12-01T05:38:09;14.65;;;7.80;;
67981;SDS011;64109;52.148;4.466;2022-12-01T05:40:35;19.50;;;8.85;;
67981;SDS011;64109;52.148;4.466;2022-12-01T05:43:01;17.77;;;8.77;;
67981;SDS011;64109;52.148;4.466;2022-12-01T05:45:27;19.30;;;9.30;;
67981;SDS011;64109;52.148;4.466;2022-12-01T05:47:56;21.77;;;9.90;;
67981;SDS011;64109;52.148;4.466;2022-12-01T05:50:23;18.30;;;8.88;;
67981;SDS011;64109;52.148;4.466;2022-12-01T05:52:49;18.90;;;9.20;;
67981;SDS011;64109;52.148;4.466;2022-12-01T05:55:15;20.10;;;8.57;;
67981;SDS011;64109;52.148;4.466;2022-12-01T05:57:41;20.33;;;8.50;;
67981;SDS011;64109;52.148;4.466;2022-12-01T06:00:07;15.95;;;8.70;;
67981;SDS011;64109;52.148;4.466;2022-12-01T06:02:33;20.52;;;8.90;;
67981;SDS011;64109;52.148;4.466;2022-12-01T06:04:59;19.17;;;8.63;;
67981;SDS011;64109;52.148;4.466;2022-12-01T06:07:25;17.75;;;8.88;;
67981;SDS011;64109;52.148;4.466;2022-12-01T06:09:52;15.63;;;8.00;;
67981;SDS011;64109;52.148;4.466;2022-12-01T06:12:18;16.80;;;7.85;;
67981;SDS011;64109;52.148;4.466;2022-12-01T06:14:44;16.50;;;8.20;;
67981;SDS011;64109;52.148;4.466;2022-12-01T06:17:10;18.15;;;8.00;;
67981;SDS011;64109;52.148;4.466;2022-12-01T06:19:36;15.02;;;7.68;;
67981;SDS011;64109;52.148;4.466;2022-12-01T06:22:02;14.93;;;7.35;;
67981;SDS011;64109;52.148;4.466;2022-12-01T06:24:28;15.90;;;7.45;;
67981;SDS011;64109;52.148;4.466;2022-12-01T06:26:54;16.85;;;8.60;;
67981;SDS011;64109;52.148;4.466;2022-12-01T06:29:20;15.32;;;7.78;;
67981;SDS011;64109;52.148;4.466;2022-12-01T06:31:46;16.20;;;7.63;;
67981;SDS011;64109;52.148;4.466;2022-12-01T06:34:12;13.48;;;6.80;;
67981;SDS011;64109;52.148;4.466;2022-12-01T06:36:38;13.52;;;7.20;;
67981;SDS011;64109;52.148;4.466;2022-12-01T06:39:07;16.95;;;7.72;;
67981;SDS011;64109;52.148;4.466;2022-12-01T06:41:34;15.98;;;7.63;;
67981;SDS011;64109;52.148;4.466;2022-12-01T06:44:00;13.20;;;7.13;;
67981;SDS011;64109;52.148;4.466;2022-12-01T06:46:26;13.60;;;7.10;;
67981;SDS011;64109;52.148;4.466;2022-12-01T06:48:52;12.10;;;7.32;;
67981;SDS011;64109;52.148;4.466;2022-12-01T06:51:18;14.18;;;7.20;;
67981;SDS011;64109;52.148;4.466;2022-12-01T06:53:44;12.95;;;7.10;;
67981;SDS011;64109;52.148;4.466;2022-12-01T06:56:10;13.45;;;7.30;;
67981;SDS011;64109;52.148;4.466;2022-12-01T06:58:36;14.70;;;6.82;;
67981;SDS011;64109;52.148;4.466;2022-12-01T07:01:11;14.55;;;7.22;;
67981;SDS011;64109;52.148;4.466;2022-12-01T07:03:37;15.93;;;7.30;;
67981;SDS011;64109;52.148;4.466;2022-12-01T07:06:03;15.38;;;6.82;;
67981;SDS011;64109;52.148;4.466;2022-12-01T07:08:30;12.48;;;6.93;;
67981;SDS011;64109;52.148;4.466;2022-12-01T07:13:22;12.75;;;6.90;;
67981;SDS011;64109;52.148;4.466;2022-12-01T07:15:48;15.25;;;8.23;;
67981;SDS011;64109;52.148;4.466;2022-12-01T07:18:14;14.20;;;7.53;;
67981;SDS011;64109;52.148;4.466;2022-12-01T07:20:40;14.52;;;6.90;;
67981;SDS011;64109;52.148;4.466;2022-12-01T07:23:06;13.30;;;6.53;;
67981;SDS011;64109;52.148;4.466;2022-12-01T07:25:32;12.95;;;6.85;;
67981;SDS011;64109;52.148;4.466;2022-12-01T07:27:58;12.05;;;6.70;;
67981;SDS011;64109;52.148;4.466;2022-12-01T07:30:24;17.08;;;7.68;;
67981;SDS011;64109;52.148;4.466;2022-12-01T07:32:50;12.85;;;6.82;;
67981;SDS011;64109;52.148;4.466;2022-12-01T07:35:16;13.35;;;6.72;;
67981;SDS011;64109;52.148;4.466;2022-12-01T07:37:42;13.65;;;6.57;;
67981;SDS011;64109;52.148;4.466;2022-12-01T07:40:08;14.73;;;6.72;;
67981;SDS011;64109;52.148;4.466;2022-12-01T07:42:34;13.13;;;6.78;;
67981;SDS011;64109;52.148;4.466;2022-12-01T07:45:00;12.38;;;6.97;;
67981;SDS011;64109;52.148;4.466;2022-12-01T07:47:26;13.88;;;7.85;;
67981;SDS011;64109;52.148;4.466;2022-12-01T07:49:52;13.82;;;6.57;;
67981;SDS011;64109;52.148;4.466;2022-12-01T07:52:19;12.55;;;6.50;;
67981;SDS011;64109;52.148;4.466;2022-12-01T07:54:45;13.65;;;7.05;;
67981;SDS011;64109;52.148;4.466;2022-12-01T07:57:11;15.02;;;7.65;;
67981;SDS011;64109;52.148;4.466;2022-12-01T07:59:38;15.70;;;7.75;;
67981;SDS011;64109;52.148;4.466;2022-12-01T08:02:05;13.52;;;6.93;;
67981;SDS011;64109;52.148;4.466;2022-12-01T08:04:31;14.52;;;7.45;;
67981;SDS011;64109;52.148;4.466;2022-12-01T08:06:57;17.55;;;7.93;;
67981;SDS011;64109;52.148;4.466;2022-12-01T08:09:23;15.35;;;7.57;;
67981;SDS011;64109;52.148;4.466;2022-12-01T08:11:49;11.40;;;5.80;;
67981;SDS011;64109;52.148;4.466;2022-12-01T08:14:15;13.82;;;6.47;;
67981;SDS011;64109;52.148;4.466;2022-12-01T08:16:41;13.93;;;6.38;;
67981;SDS011;64109;52.148;4.466;2022-12-01T08:19:09;15.05;;;6.90;;
67981;SDS011;64109;52.148;4.466;2022-12-01T08:21:35;14.98;;;7.07;;
67981;SDS011;64109;52.148;4.466;2022-12-01T08:24:02;14.10;;;7.03;;
67981;SDS011;64109;52.148;4.466;2022-12-01T08:26:28;16.83;;;7.43;;
67981;SDS011;64109;52.148;4.466;2022-12-01T08:28:54;13.02;;;6.47;;
67981;SDS011;64109;52.148;4.466;2022-12-01T08:33:46;15.02;;;6.60;;
67981;SDS011;64109;52.148;4.466;2022-12-01T08:36:13;16.15;;;6.60;;
67981;SDS011;64109;52.148;4.466;2022-12-01T08:38:41;16.38;;;6.75;;
67981;SDS011;64109;52.148;4.466;2022-12-01T08:41:07;13.43;;;6.93;;
67981;SDS011;64109;52.148;4.466;2022-12-01T08:43:33;13.90;;;7.13;;
67981;SDS011;64109;52.148;4.466;2022-12-01T08:46:04;13.88;;;6.55;;
67981;SDS011;64109;52.148;4.466;2022-12-01T08:48:30;14.63;;;7.15;;
67981;SDS011;64109;52.148;4.466;2022-12-01T08:51:03;14.55;;;6.63;;
67981;SDS011;64109;52.148;4.466;2022-12-01T08:53:29;14.27;;;7.28;;
67981;SDS011;64109;52.148;4.466;2022-12-01T08:56:00;14.13;;;6.80;;
67981;SDS011;64109;52.148;4.466;2022-12-01T08:58:26;14.02;;;6.97;;
67981;SDS011;64109;52.148;4.466;2022-12-01T09:00:52;15.35;;;7.10;;
67981;SDS011;64109;52.148;4.466;2022-12-01T09:03:18;14.80;;;7.32;;
67981;SDS011;64109;52.148;4.466;2022-12-01T09:05:44;14.15;;;7.43;;
67981;SDS011;64109;52.148;4.466;2022-12-01T09:08:10;13.60;;;7.05;;
67981;SDS011;64109;52.148;4.466;2022-12-01T09:10:54;15.75;;;7.00;;
67981;SDS011;64109;52.148;4.466;2022-12-01T09:13:20;12.77;;;6.25;;
67981;SDS011;64109;52.148;4.466;2022-12-01T09:15:56;14.13;;;7.28;;
67981;SDS011;64109;52.148;4.466;2022-12-01T09:18:23;17.02;;;6.90;;
67981;SDS011;64109;52.148;4.466;2022-12-01T09:20:50;14.65;;;7.85;;
67981;SDS011;64109;52.148;4.466;2022-12-01T09:23:16;15.98;;;7.15;;
67981;SDS011;64109;52.148;4.466;2022-12-01T09:25:42;14.75;;;6.85;;
67981;SDS011;64109;52.148;4.466;2022-12-01T09:28:09;15.23;;;7.50;;
67981;SDS011;64109;52.148;4.466;2022-12-01T09:30:35;13.45;;;7.10;;
67981;SDS011;64109;52.148;4.466;2022-12-01T09:33:01;13.07;;;6.35;;
67981;SDS011;64109;52.148;4.466;2022-12-01T09:35:29;14.10;;;6.72;;
67981;SDS011;64109;52.148;4.466;2022-12-01T09:37:55;13.80;;;6.97;;
67981;SDS011;64109;52.148;4.466;2022-12-01T09:40:22;15.25;;;7.53;;
67981;SDS011;64109;52.148;4.466;2022-12-01T09:45:19;15.10;;;7.13;;
67981;SDS011;64109;52.148;4.466;2022-12-01T09:47:48;12.73;;;6.85;;
67981;SDS011;64109;52.148;4.466;2022-12-01T09:50:18;12.57;;;6.70;;
67981;SDS011;64109;52.148;4.466;2022-12-01T09:53:23;13.63;;;7.03;;
67981;SDS011;64109;52.148;4.466;2022-12-01T09:55:41;14.48;;;7.65;;
67981;SDS011;64109;52.148;4.466;2022-12-01T09:58:11;14.55;;;6.68;;
67981;SDS011;64109;52.148;4.466;2022-12-01T10:00:41;13.15;;;6.78;;
67981;SDS011;64109;52.148;4.466;2022-12-01T10:05:43;12.70;;;7.05;;
67981;SDS011;64109;52.148;4.466;2022-12-01T10:08:14;13.70;;;6.93;;
67981;SDS011;64109;52.148;4.466;2022-12-01T10:10:42;14.00;;;6.55;;
67981;SDS011;64109;52.148;4.466;2022-12-01T10:13:16;13.38;;;6.30;;
67981;SDS011;64109;52.148;4.466;2022-12-01T10:15:50;13.38;;;7.20;;
67981;SDS011;64109;52.148;4.466;2022-12-01T10:18:26;13.65;;;6.95;;
67981;SDS011;64109;52.148;4.466;2022-12-01T10:26:09;15.38;;;7.18;;
67981;SDS011;64109;52.148;4.466;2022-12-01T10:34:19;14.32;;;7.07;;
67981;SDS011;64109;52.148;4.466;2022-12-01T10:36:46;14.45;;;6.93;;
67981;SDS011;64109;52.148;4.466;2022-12-01T10:39:16;14.15;;;6.82;;
67981;SDS011;64109;52.148;4.466;2022-12-01T10:41:42;13.93;;;6.88;;
67981;SDS011;64109;52.148;4.466;2022-12-01T10:44:09;14.55;;;7.75;;
67981;SDS011;64109;52.148;4.466;2022-12-01T10:46:54;13.80;;;6.85;;
67981;SDS011;64109;52.148;4.466;2022-12-01T10:49:20;12.57;;;7.30;;
67981;SDS011;64109;52.148;4.466;2022-12-01T10:51:58;14.52;;;7.20;;
67981;SDS011;64109;52.148;4.466;2022-12-01T10:54:33;15.32;;;7.28;;
67981;SDS011;64109;52.148;4.466;2022-12-01T10:57:00;13.50;;;7.20;;
67981;SDS011;64109;52.148;4.466;2022-12-01T11:02:19;13.75;;;7.55;;
67981;SDS011;64109;52.148;4.466;2022-12-01T11:05:01;17.48;;;7.40;;
67981;SDS011;64109;52.148;4.466;2022-12-01T11:07:33;13.68;;;6.88;;
67981;SDS011;64109;52.148;4.466;2022-12-01T11:12:45;13.57;;;6.88;;
67981;SDS011;64109;52.148;4.466;2022-12-01T11:15:24;13.80;;;7.35;;
67981;SDS011;64109;52.148;4.466;2022-12-01T11:18:00;14.70;;;7.45;;
67981;SDS011;64109;52.148;4.466;2022-12-01T11:23:39;14.82;;;7.30;;
67981;SDS011;64109;52.148;4.466;2022-12-01T11:25:39;15.10;;;7.57;;
67981;SDS011;64109;52.148;4.466;2022-12-01T11:28:05;13.65;;;7.10;;
67981;SDS011;64109;52.148;4.466;2022-12-01T11:30:31;14.63;;;7.45;;
67981;SDS011;64109;52.148;4.466;2022-12-01T11:32:58;14.90;;;7.63;;
67981;SDS011;64109;52.148;4.466;2022-12-01T11:35:26;15.30;;;7.95;;
67981;SDS011;64109;52.148;4.466;2022-12-01T11:37:53;14.23;;;7.95;;
67981;SDS011;64109;52.148;4.466;2022-12-01T11:40:24;15.38;;;7.70;;
67981;SDS011;64109;52.148;4.466;2022-12-01T11:42:52;13.48;;;7.40;;
67981;SDS011;64109;52.148;4.466;2022-12-01T11:50:30;13.27;;;7.50;;
67981;SDS011;64109;52.148;4.466;2022-12-01T11:52:56;12.25;;;6.95;;
67981;SDS011;64109;52.148;4.466;2022-12-01T11:55:24;13.38;;;6.97;;
67981;SDS011;64109;52.148;4.466;2022-12-01T11:57:56;14.38;;;7.47;;
67981;SDS011;64109;52.148;4.466;2022-12-01T12:00:24;12.52;;;6.63;;
67981;SDS011;64109;52.148;4.466;2022-12-01T12:18:30;14.13;;;7.15;;
67981;SDS011;64109;52.148;4.466;2022-12-01T12:26:18;14.13;;;6.85;;
67981;SDS011;64109;52.148;4.466;2022-12-01T12:31:39;15.27;;;7.60;;
67981;SDS011;64109;52.148;4.466;2022-12-01T12:34:15;16.20;;;8.55;;
67981;SDS011;64109;52.148;4.466;2022-12-01T12:41:51;14.15;;;7.32;;
67981;SDS011;64109;52.148;4.466;2022-12-01T12:52:06;12.38;;;7.07;;
67981;SDS011;64109;52.148;4.466;2022-12-01T12:54:34;13.88;;;7.70;;
67981;SDS011;64109;52.148;4.466;2022-12-01T12:57:05;14.15;;;6.93;;
67981;SDS011;64109;52.148;4.466;2022-12-01T13:02:36;15.77;;;6.60;;
67981;SDS011;64109;52.148;4.466;2022-12-01T13:10:36;12.63;;;6.95;;
67981;SDS011;64109;52.148;4.466;2022-12-01T13:13:10;14.90;;;7.40;;
67981;SDS011;64109;52.148;4.466;2022-12-01T13:15:38;11.55;;;6.60;;
67981;SDS011;64109;52.148;4.466;2022-12-01T13:18:15;14.20;;;7.32;;
67981;SDS011;64109;52.148;4.466;2022-12-01T13:20:44;12.25;;;7.03;;
67981;SDS011;64109;52.148;4.466;2022-12-01T13:23:12;13.10;;;7.15;;
67981;SDS011;64109;52.148;4.466;2022-12-01T13:25:39;12.18;;;6.47;;
67981;SDS011;64109;52.148;4.466;2022-12-01T13:28:18;13.02;;;6.78;;
67981;SDS011;64109;52.148;4.466;2022-12-01T13:31:18;11.60;;;5.85;;
67981;SDS011;64109;52.148;4.466;2022-12-01T13:33:37;12.52;;;7.22;;
67981;SDS011;64109;52.148;4.466;2022-12-01T13:36:08;11.70;;;6.78;;
67981;SDS011;64109;52.148;4.466;2022-12-01T13:38:35;13.85;;;7.20;;
67981;SDS011;64109;52.148;4.466;2022-12-01T13:43:37;9.73;;;6.35;;
67981;SDS011;64109;52.148;4.466;2022-12-01T13:46:24;14.20;;;6.78;;
67981;SDS011;64109;52.148;4.466;2022-12-01T13:48:52;11.95;;;5.85;;
67981;SDS011;64109;52.148;4.466;2022-12-01T13:51:18;13.27;;;6.80;;
67981;SDS011;64109;52.148;4.466;2022-12-01T13:56:24;16.48;;;13.73;;
67981;SDS011;64109;52.148;4.466;2022-12-01T13:58:51;12.63;;;6.53;;
67981;SDS011;64109;52.148;4.466;2022-12-01T14:09:06;39.72;;;15.48;;
67981;SDS011;64109;52.148;4.466;2022-12-01T14:11:38;34.20;;;13.00;;
67981;SDS011;64109;52.148;4.466;2022-12-01T14:14:11;33.83;;;13.57;;
67981;SDS011;64109;52.148;4.466;2022-12-01T14:22:03;30.17;;;13.25;;
67981;SDS011;64109;52.148;4.466;2022-12-01T14:27:02;27.13;;;12.27;;
67981;SDS011;64109;52.148;4.466;2022-12-01T14:29:35;24.95;;;10.38;;
67981;SDS011;64109;52.148;4.466;2022-12-01T14:34:33;22.90;;;9.70;;
67981;SDS011;64109;52.148;4.466;2022-12-01T14:37:04;23.98;;;9.75;;
67981;SDS011;64109;52.148;4.466;2022-12-01T14:39:37;24.92;;;9.68;;
67981;SDS011;64109;52.148;4.466;2022-12-01T14:47:00;19.85;;;8.93;;
67981;SDS011;64109;52.148;4.466;2022-12-01T14:52:12;18.38;;;8.75;;
67981;SDS011;64109;52.148;4.466;2022-12-01T14:54:43;16.90;;;7.72;;
67981;SDS011;64109;52.148;4.466;2022-12-01T14:57:10;15.38;;;7.32;;
67981;SDS011;64109;52.148;4.466;2022-12-01T14:59:37;15.07;;;7.53;;
67981;SDS011;64109;52.148;4.466;2022-12-01T15:02:04;15.70;;;7.15;;
67981;SDS011;64109;52.148;4.466;2022-12-01T15:04:34;16.17;;;7.53;;
67981;SDS011;64109;52.148;4.466;2022-12-01T15:07:01;16.00;;;7.18;;
67981;SDS011;64109;52.148;4.466;2022-12-01T15:09:27;14.77;;;7.07;;
67981;SDS011;64109;52.148;4.466;2022-12-01T15:14:36;14.20;;;6.50;;
67981;SDS011;64109;52.148;4.466;2022-12-01T15:17:02;13.63;;;6.25;;
67981;SDS011;64109;52.148;4.466;2022-12-01T15:19:30;12.52;;;6.47;;
67981;SDS011;64109;52.148;4.466;2022-12-01T15:21:57;16.50;;;6.57;;
67981;SDS011;64109;52.148;4.466;2022-12-01T15:24:24;14.95;;;6.82;;
67981;SDS011;64109;52.148;4.466;2022-12-01T15:26:55;11.70;;;5.57;;
67981;SDS011;64109;52.148;4.466;2022-12-01T15:29:25;15.27;;;6.45;;
67981;SDS011;64109;52.148;4.466;2022-12-01T15:31:53;12.45;;;6.22;;
67981;SDS011;64109;52.148;4.466;2022-12-01T15:34:23;13.93;;;6.00;;
67981;SDS011;64109;52.148;4.466;2022-12-01T15:36:51;12.45;;;5.65;;
67981;SDS011;64109;52.148;4.466;2022-12-01T15:39:19;11.93;;;5.65;;
67981;SDS011;64109;52.148;4.466;2022-12-01T15:41:47;12.57;;;6.35;;
67981;SDS011;64109;52.148;4.466;2022-12-01T15:44:28;11.52;;;5.78;;
67981;SDS011;64109;52.148;4.466;2022-12-01T15:46:55;12.43;;;5.78;;
67981;SDS011;64109;52.148;4.466;2022-12-01T15:49:30;16.13;;;5.80;;
67981;SDS011;64109;52.148;4.466;2022-12-01T15:52:10;11.60;;;5.85;;
67981;SDS011;64109;52.148;4.466;2022-12-01T15:54:37;12.43;;;5.80;;
67981;SDS011;64109;52.148;4.466;2022-12-01T15:57:03;12.02;;;6.03;;
67981;SDS011;64109;52.148;4.466;2022-12-01T16:01:56;11.98;;;5.82;;
67981;SDS011;64109;52.148;4.466;2022-12-01T16:04:26;11.55;;;5.47;;
67981;SDS011;64109;52.148;4.466;2022-12-01T16:06:56;11.10;;;5.35;;
67981;SDS011;64109;52.148;4.466;2022-12-01T16:12:01;11.43;;;5.55;;
67981;SDS011;64109;52.148;4.466;2022-12-01T16:14:28;11.85;;;5.90;;
67981;SDS011;64109;52.148;4.466;2022-12-01T16:16:56;11.27;;;5.65;;
67981;SDS011;64109;52.148;4.466;2022-12-01T16:19:25;9.98;;;5.70;;
67981;SDS011;64109;52.148;4.466;2022-12-01T16:21:53;12.18;;;5.78;;
67981;SDS011;64109;52.148;4.466;2022-12-01T16:24:30;12.38;;;5.50;;
67981;SDS011;64109;52.148;4.466;2022-12-01T16:26:58;12.00;;;5.55;;
67981;SDS011;64109;52.148;4.466;2022-12-01T16:29:25;14.25;;;5.63;;
67981;SDS011;64109;52.148;4.466;2022-12-01T16:31:52;11.75;;;5.70;;
67981;SDS011;64109;52.148;4.466;2022-12-01T16:34:22;11.23;;;5.40;;
67981;SDS011;64109;52.148;4.466;2022-12-01T16:36:48;11.68;;;5.32;;
67981;SDS011;64109;52.148;4.466;2022-12-01T16:39:14;11.90;;;5.68;;
67981;SDS011;64109;52.148;4.466;2022-12-01T16:41:41;11.88;;;5.00;;
67981;SDS011;64109;52.148;4.466;2022-12-01T16:44:14;10.48;;;5.43;;
67981;SDS011;64109;52.148;4.466;2022-12-01T16:46:40;11.27;;;5.30;;
67981;SDS011;64109;52.148;4.466;2022-12-01T16:49:06;9.63;;;4.85;;
67981;SDS011;64109;52.148;4.466;2022-12-01T16:51:35;9.00;;;4.63;;
67981;SDS011;64109;52.148;4.466;2022-12-01T16:54:01;12.25;;;5.75;;
67981;SDS011;64109;52.148;4.466;2022-12-01T16:56:30;10.38;;;5.07;;
67981;SDS011;64109;52.148;4.466;2022-12-01T16:58:56;11.32;;;5.38;;
67981;SDS011;64109;52.148;4.466;2022-12-01T17:01:22;11.05;;;5.20;;
67981;SDS011;64109;52.148;4.466;2022-12-01T17:03:48;10.52;;;5.25;;
67981;SDS011;64109;52.148;4.466;2022-12-01T17:06:16;10.50;;;5.10;;
67981;SDS011;64109;52.148;4.466;2022-12-01T17:08:42;9.43;;;4.80;;
67981;SDS011;64109;52.148;4.466;2022-12-01T17:11:08;10.05;;;4.70;;
67981;SDS011;64109;52.148;4.466;2022-12-01T17:13:34;10.25;;;5.20;;
67981;SDS011;64109;52.148;4.466;2022-12-01T17:16:03;12.93;;;5.45;;